createdAt,value
2022-11-21T04:43:30.367Z,12.90
2022-11-21T04:58:34.808Z,12.80
2022-11-21T05:13:39.186Z,12.70
2022-11-21T05:28:44.135Z,12.70
2022-11-21T05:43:49.699Z,12.70
2022-11-21T05:58:55.888Z,12.20
2022-11-21T06:14:00.237Z,12.30
2022-11-21T06:29:04.714Z,12.00
2022-11-21T06:44:09.227Z,12.50
2022-11-21T06:59:13.644Z,12.70
2022-11-21T07:14:18.883Z,12.50
2022-11-21T07:29:23.334Z,12.80
2022-11-21T07:44:27.815Z,12.60
2022-11-21T07:59:32.159Z,12.60
2022-11-21T08:14:36.591Z,12.40
2022-11-21T08:29:40.919Z,12.40
2022-11-21T08:44:45.356Z,12.40
2022-11-21T08:59:49.766Z,12.50
2022-11-21T09:15:11.784Z,12.70
2022-11-21T09:30:17.354Z,12.50
2022-11-21T09:45:26.894Z,12.70
2022-11-21T10:00:31.908Z,12.80
2022-11-21T10:15:54.827Z,12.60
2022-11-21T10:31:01.024Z,12.70
2022-11-21T10:46:05.500Z,12.90
2022-11-21T11:01:27.573Z,12.90
2022-11-21T11:16:38.564Z,13.00
2022-11-21T11:31:53.530Z,12.90
2022-11-21T11:47:25.055Z,12.90
2022-11-21T12:02:41.385Z,13.00
2022-11-21T12:17:53.829Z,13.00
2022-11-21T12:33:08.629Z,13.20
2022-11-21T12:48:58.856Z,13.10
2022-11-21T13:04:06.610Z,13.00
2022-11-21T13:19:21.967Z,13.10
2022-11-21T13:34:38.454Z,13.10
2022-11-21T13:49:52.251Z,12.80
2022-11-21T14:05:14.349Z,13.00
2022-11-21T14:20:23.423Z,13.00
2022-11-21T14:35:30.258Z,12.90
2022-11-21T14:50:36.260Z,12.80
2022-11-21T15:21:09.470Z,12.60
2022-11-21T15:36:20.429Z,12.60
2022-11-21T15:51:59.628Z,12.60
2022-11-21T16:06:53.313Z,12.20
2022-11-21T16:22:00.170Z,12.50
2022-11-21T16:37:07.998Z,12.20
2022-11-21T16:52:13.775Z,12.70
2022-11-21T17:07:19.015Z,12.40
2022-11-21T17:22:25.397Z,12.00
2022-11-21T17:37:30.309Z,12.20
2022-11-21T17:52:35.287Z,12.00
2022-11-21T18:07:42.065Z,11.80
2022-11-21T18:22:52.048Z,11.60
2022-11-21T18:38:40.253Z,11.70
2022-11-21T18:53:46.222Z,11.50
2022-11-21T19:08:53.178Z,11.70
2022-11-21T19:23:57.709Z,11.40
2022-11-21T19:39:02.235Z,11.50
2022-11-21T19:54:08.767Z,11.00
2022-11-21T20:09:15.685Z,11.10
2022-11-21T20:24:20.319Z,10.90
2022-11-21T20:39:30.885Z,10.90
2022-11-21T20:54:35.684Z,11.30
2022-11-21T21:09:40.291Z,11.10
